Boston, Massachusetts
Current Conditions -  °F | °C
As of 4:54 AM on Saturday 22 Nov 2014 (Local Time) from KBOS Reporting Station
Few Clouds Few Clouds  
Wind Chill: -9°   Ceiling: Unl
Heat Index: -3°   Visibility: 10mi
Dew Point: -11°   Wind: 10mph
Humidity: 55%   Direction: 250°WSW
Pressure: 30.42"   Gusts: NA
Location:  42.36°N, 71.06°W
Report Text: KBOS 220954Z 25009KT 10SM FEW250 M03/M11 A3042 RMK AO2 SLP300 T10331111
Loading
Personal Weather Stations






























Interactive Weather Map New forecast layout! Learn more

10-Day Weather Forecast

Advertisements
Track Severe Weather on mobile